sensor_id;sensor_type;location;lat;lon;timestamp;P1;durP1;ratioP1;P2;durP2;ratioP2
34737;SDS011;39910;47.154;27.614;2023-10-31T00:00:07;10.95;;;10.45;;
34737;SDS011;39910;47.154;27.614;2023-10-31T00:02:34;10.60;;;10.10;;
34737;SDS011;39910;47.154;27.614;2023-10-31T00:05:00;10.52;;;10.02;;
34737;SDS011;39910;47.154;27.614;2023-10-31T00:07:25;10.35;;;9.85;;
34737;SDS011;39910;47.154;27.614;2023-10-31T00:09:50;10.55;;;10.05;;
34737;SDS011;39910;47.154;27.614;2023-10-31T00:12:16;10.30;;;9.80;;
34737;SDS011;39910;47.154;27.614;2023-10-31T00:14:41;10.90;;;10.40;;
34737;SDS011;39910;47.154;27.614;2023-10-31T00:17:06;10.90;;;10.40;;
34737;SDS011;39910;47.154;27.614;2023-10-31T00:19:31;10.60;;;10.10;;
34737;SDS011;39910;47.154;27.614;2023-10-31T00:21:57;10.75;;;10.25;;
34737;SDS011;39910;47.154;27.614;2023-10-31T00:24:22;10.73;;;10.23;;
34737;SDS011;39910;47.154;27.614;2023-10-31T00:26:48;10.70;;;10.20;;
34737;SDS011;39910;47.154;27.614;2023-10-31T00:29:13;10.80;;;10.30;;
34737;SDS011;39910;47.154;27.614;2023-10-31T00:31:38;10.10;;;9.70;;
34737;SDS011;39910;47.154;27.614;2023-10-31T00:34:06;10.40;;;9.90;;
34737;SDS011;39910;47.154;27.614;2023-10-31T00:36:32;10.40;;;9.90;;
34737;SDS011;39910;47.154;27.614;2023-10-31T00:38:58;10.60;;;10.10;;
34737;SDS011;39910;47.154;27.614;2023-10-31T00:41:23;10.50;;;10.00;;
34737;SDS011;39910;47.154;27.614;2023-10-31T00:43:48;10.60;;;10.10;;
34737;SDS011;39910;47.154;27.614;2023-10-31T00:46:13;10.18;;;9.75;;
34737;SDS011;39910;47.154;27.614;2023-10-31T00:48:39;10.30;;;9.80;;
34737;SDS011;39910;47.154;27.614;2023-10-31T00:51:04;10.63;;;10.13;;
34737;SDS011;39910;47.154;27.614;2023-10-31T00:53:30;11.05;;;10.55;;
34737;SDS011;39910;47.154;27.614;2023-10-31T00:55:56;10.05;;;9.65;;
34737;SDS011;39910;47.154;27.614;2023-10-31T00:58:21;10.50;;;10.00;;
34737;SDS011;39910;47.154;27.614;2023-10-31T01:00:47;10.65;;;10.15;;
34737;SDS011;39910;47.154;27.614;2023-10-31T01:03:12;10.48;;;9.98;;
34737;SDS011;39910;47.154;27.614;2023-10-31T01:05:37;10.60;;;10.10;;
34737;SDS011;39910;47.154;27.614;2023-10-31T01:08:03;10.10;;;9.63;;
34737;SDS011;39910;47.154;27.614;2023-10-31T01:10:28;10.80;;;10.30;;
34737;SDS011;39910;47.154;27.614;2023-10-31T01:12:54;10.38;;;9.88;;
34737;SDS011;39910;47.154;27.614;2023-10-31T01:15:19;10.02;;;9.60;;
34737;SDS011;39910;47.154;27.614;2023-10-31T01:17:44;10.50;;;10.00;;
34737;SDS011;39910;47.154;27.614;2023-10-31T01:20:09;10.88;;;10.38;;
34737;SDS011;39910;47.154;27.614;2023-10-31T01:22:35;10.45;;;9.95;;
34737;SDS011;39910;47.154;27.614;2023-10-31T01:25:01;10.23;;;9.77;;
34737;SDS011;39910;47.154;27.614;2023-10-31T01:27:26;10.60;;;10.10;;
34737;SDS011;39910;47.154;27.614;2023-10-31T01:29:51;10.63;;;10.13;;
34737;SDS011;39910;47.154;27.614;2023-10-31T01:32:17;10.93;;;10.43;;
34737;SDS011;39910;47.154;27.614;2023-10-31T01:34:43;10.50;;;10.00;;
34737;SDS011;39910;47.154;27.614;2023-10-31T01:37:08;10.48;;;9.98;;
34737;SDS011;39910;47.154;27.614;2023-10-31T01:39:35;10.90;;;10.40;;
34737;SDS011;39910;47.154;27.614;2023-10-31T01:42:01;10.57;;;10.07;;
34737;SDS011;39910;47.154;27.614;2023-10-31T01:44:26;10.90;;;10.40;;
34737;SDS011;39910;47.154;27.614;2023-10-31T01:46:51;10.60;;;10.10;;
34737;SDS011;39910;47.154;27.614;2023-10-31T01:49:17;10.43;;;9.93;;
34737;SDS011;39910;47.154;27.614;2023-10-31T01:51:42;10.48;;;9.98;;
34737;SDS011;39910;47.154;27.614;2023-10-31T01:54:08;10.70;;;10.20;;
34737;SDS011;39910;47.154;27.614;2023-10-31T01:56:34;10.27;;;9.77;;
34737;SDS011;39910;47.154;27.614;2023-10-31T01:58:59;10.27;;;9.77;;
34737;SDS011;39910;47.154;27.614;2023-10-31T02:01:25;10.70;;;10.20;;
34737;SDS011;39910;47.154;27.614;2023-10-31T02:03:50;10.80;;;10.30;;
34737;SDS011;39910;47.154;27.614;2023-10-31T02:06:15;9.98;;;9.57;;
34737;SDS011;39910;47.154;27.614;2023-10-31T02:08:41;10.60;;;10.10;;
34737;SDS011;39910;47.154;27.614;2023-10-31T02:11:06;11.02;;;10.52;;
34737;SDS011;39910;47.154;27.614;2023-10-31T02:13:35;10.65;;;10.15;;
34737;SDS011;39910;47.154;27.614;2023-10-31T02:16:01;10.10;;;9.70;;
34737;SDS011;39910;47.154;27.614;2023-10-31T02:18:26;10.60;;;10.10;;
34737;SDS011;39910;47.154;27.614;2023-10-31T02:20:52;10.68;;;10.18;;
34737;SDS011;39910;47.154;27.614;2023-10-31T02:23:17;10.70;;;10.20;;
34737;SDS011;39910;47.154;27.614;2023-10-31T02:25:42;10.48;;;9.98;;
34737;SDS011;39910;47.154;27.614;2023-10-31T02:28:08;10.50;;;10.00;;
34737;SDS011;39910;47.154;27.614;2023-10-31T02:30:34;10.82;;;10.32;;
34737;SDS011;39910;47.154;27.614;2023-10-31T02:33:00;10.90;;;10.40;;
34737;SDS011;39910;47.154;27.614;2023-10-31T02:35:25;10.88;;;10.38;;
34737;SDS011;39910;47.154;27.614;2023-10-31T02:37:51;10.35;;;9.85;;
34737;SDS011;39910;47.154;27.614;2023-10-31T02:40:16;10.60;;;10.10;;
34737;SDS011;39910;47.154;27.614;2023-10-31T02:42:41;10.80;;;10.30;;
34737;SDS011;39910;47.154;27.614;2023-10-31T02:45:07;10.30;;;9.80;;
34737;SDS011;39910;47.154;27.614;2023-10-31T02:47:33;10.57;;;10.07;;
34737;SDS011;39910;47.154;27.614;2023-10-31T02:49:58;10.15;;;9.70;;
34737;SDS011;39910;47.154;27.614;2023-10-31T02:52:23;10.35;;;9.85;;
34737;SDS011;39910;47.154;27.614;2023-10-31T02:54:49;10.57;;;10.07;;
34737;SDS011;39910;47.154;27.614;2023-10-31T02:57:15;10.40;;;9.90;;
34737;SDS011;39910;47.154;27.614;2023-10-31T02:59:40;10.70;;;10.20;;
34737;SDS011;39910;47.154;27.614;2023-10-31T03:02:06;10.35;;;9.85;;
34737;SDS011;39910;47.154;27.614;2023-10-31T03:04:31;10.40;;;9.90;;
34737;SDS011;39910;47.154;27.614;2023-10-31T03:06:56;10.50;;;10.00;;
34737;SDS011;39910;47.154;27.614;2023-10-31T03:09:21;10.05;;;9.65;;
34737;SDS011;39910;47.154;27.614;2023-10-31T03:11:47;10.77;;;10.27;;
34737;SDS011;39910;47.154;27.614;2023-10-31T03:14:12;10.43;;;9.93;;
34737;SDS011;39910;47.154;27.614;2023-10-31T03:16:37;10.10;;;9.68;;
34737;SDS011;39910;47.154;27.614;2023-10-31T03:19:04;10.40;;;9.90;;
34737;SDS011;39910;47.154;27.614;2023-10-31T03:21:29;10.00;;;9.60;;
34737;SDS011;39910;47.154;27.614;2023-10-31T03:23:55;10.35;;;9.85;;
34737;SDS011;39910;47.154;27.614;2023-10-31T03:26:20;10.20;;;9.70;;
34737;SDS011;39910;47.154;27.614;2023-10-31T03:28:46;10.73;;;10.23;;
34737;SDS011;39910;47.154;27.614;2023-10-31T03:31:11;10.93;;;10.43;;
34737;SDS011;39910;47.154;27.614;2023-10-31T03:33:37;10.98;;;10.48;;
34737;SDS011;39910;47.154;27.614;2023-10-31T03:36:03;11.18;;;10.68;;
34737;SDS011;39910;47.154;27.614;2023-10-31T03:38:28;10.63;;;10.13;;
34737;SDS011;39910;47.154;27.614;2023-10-31T03:40:53;10.57;;;10.07;;
34737;SDS011;39910;47.154;27.614;2023-10-31T03:43:19;10.73;;;10.23;;
34737;SDS011;39910;47.154;27.614;2023-10-31T03:45:45;10.30;;;9.80;;
34737;SDS011;39910;47.154;27.614;2023-10-31T03:48:10;10.15;;;9.70;;
34737;SDS011;39910;47.154;27.614;2023-10-31T03:50:36;10.55;;;10.05;;
34737;SDS011;39910;47.154;27.614;2023-10-31T03:53:01;10.80;;;10.30;;
34737;SDS011;39910;47.154;27.614;2023-10-31T03:55:26;10.70;;;10.20;;
34737;SDS011;39910;47.154;27.614;2023-10-31T03:57:52;10.35;;;9.85;;
34737;SDS011;39910;47.154;27.614;2023-10-31T04:00:18;10.52;;;10.02;;
34737;SDS011;39910;47.154;27.614;2023-10-31T04:02:43;10.57;;;10.07;;
34737;SDS011;39910;47.154;27.614;2023-10-31T04:05:09;10.77;;;10.27;;
34737;SDS011;39910;47.154;27.614;2023-10-31T04:07:34;10.15;;;9.70;;
34737;SDS011;39910;47.154;27.614;2023-10-31T04:09:59;10.68;;;10.18;;
34737;SDS011;39910;47.154;27.614;2023-10-31T04:12:25;11.00;;;10.50;;
34737;SDS011;39910;47.154;27.614;2023-10-31T04:14:50;10.98;;;10.48;;
34737;SDS011;39910;47.154;27.614;2023-10-31T04:17:15;10.60;;;10.10;;
34737;SDS011;39910;47.154;27.614;2023-10-31T04:19:41;10.60;;;10.10;;
34737;SDS011;39910;47.154;27.614;2023-10-31T04:22:06;10.45;;;9.95;;
34737;SDS011;39910;47.154;27.614;2023-10-31T04:24:31;10.52;;;10.02;;
34737;SDS011;39910;47.154;27.614;2023-10-31T04:26:56;10.90;;;10.40;;
34737;SDS011;39910;47.154;27.614;2023-10-31T04:29:22;10.95;;;10.45;;
34737;SDS011;39910;47.154;27.614;2023-10-31T04:31:47;10.60;;;10.10;;
34737;SDS011;39910;47.154;27.614;2023-10-31T04:34:13;10.20;;;9.73;;
34737;SDS011;39910;47.154;27.614;2023-10-31T04:36:38;10.15;;;9.68;;
34737;SDS011;39910;47.154;27.614;2023-10-31T04:39:04;10.38;;;9.88;;
34737;SDS011;39910;47.154;27.614;2023-10-31T04:41:30;10.68;;;10.18;;
34737;SDS011;39910;47.154;27.614;2023-10-31T04:43:55;10.60;;;10.10;;
34737;SDS011;39910;47.154;27.614;2023-10-31T04:46:21;10.70;;;10.20;;
34737;SDS011;39910;47.154;27.614;2023-10-31T04:48:46;10.50;;;10.00;;
34737;SDS011;39910;47.154;27.614;2023-10-31T04:51:12;11.07;;;10.57;;
34737;SDS011;39910;47.154;27.614;2023-10-31T04:53:37;10.45;;;9.95;;
34737;SDS011;39910;47.154;27.614;2023-10-31T04:56:02;10.20;;;9.70;;
34737;SDS011;39910;47.154;27.614;2023-10-31T04:58:28;10.45;;;9.95;;
34737;SDS011;39910;47.154;27.614;2023-10-31T05:00:53;10.88;;;10.38;;
34737;SDS011;39910;47.154;27.614;2023-10-31T05:03:19;10.40;;;9.90;;
34737;SDS011;39910;47.154;27.614;2023-10-31T05:05:44;10.52;;;10.02;;
34737;SDS011;39910;47.154;27.614;2023-10-31T05:08:09;10.40;;;9.90;;
34737;SDS011;39910;47.154;27.614;2023-10-31T05:10:35;11.30;;;10.80;;
34737;SDS011;39910;47.154;27.614;2023-10-31T05:13:00;10.40;;;9.90;;
34737;SDS011;39910;47.154;27.614;2023-10-31T05:15:27;10.60;;;10.10;;
34737;SDS011;39910;47.154;27.614;2023-10-31T05:17:52;10.38;;;9.88;;
34737;SDS011;39910;47.154;27.614;2023-10-31T05:20:17;11.48;;;10.98;;
34737;SDS011;39910;47.154;27.614;2023-10-31T05:22:43;10.80;;;10.30;;
34737;SDS011;39910;47.154;27.614;2023-10-31T05:25:08;11.20;;;10.70;;
34737;SDS011;39910;47.154;27.614;2023-10-31T05:27:33;10.85;;;10.35;;
34737;SDS011;39910;47.154;27.614;2023-10-31T05:29:59;11.50;;;11.00;;
34737;SDS011;39910;47.154;27.614;2023-10-31T05:32:24;11.45;;;10.95;;
34737;SDS011;39910;47.154;27.614;2023-10-31T05:34:49;11.30;;;10.80;;
34737;SDS011;39910;47.154;27.614;2023-10-31T05:37:15;11.30;;;10.80;;
34737;SDS011;39910;47.154;27.614;2023-10-31T05:39:40;11.50;;;11.00;;
34737;SDS011;39910;47.154;27.614;2023-10-31T05:42:05;11.18;;;10.68;;
34737;SDS011;39910;47.154;27.614;2023-10-31T05:44:30;11.52;;;11.02;;
34737;SDS011;39910;47.154;27.614;2023-10-31T05:46:56;11.73;;;11.23;;
34737;SDS011;39910;47.154;27.614;2023-10-31T05:49:21;11.68;;;11.18;;
34737;SDS011;39910;47.154;27.614;2023-10-31T05:51:50;11.68;;;11.18;;
34737;SDS011;39910;47.154;27.614;2023-10-31T05:54:15;11.77;;;11.27;;
34737;SDS011;39910;47.154;27.614;2023-10-31T05:56:40;11.73;;;11.23;;
34737;SDS011;39910;47.154;27.614;2023-10-31T05:59:07;11.82;;;11.32;;
34737;SDS011;39910;47.154;27.614;2023-10-31T06:01:32;11.63;;;11.13;;
34737;SDS011;39910;47.154;27.614;2023-10-31T06:03:57;11.70;;;11.20;;
34737;SDS011;39910;47.154;27.614;2023-10-31T06:06:23;12.20;;;11.70;;
34737;SDS011;39910;47.154;27.614;2023-10-31T06:08:48;12.27;;;11.77;;
34737;SDS011;39910;47.154;27.614;2023-10-31T06:11:13;11.73;;;11.23;;
34737;SDS011;39910;47.154;27.614;2023-10-31T06:13:39;11.50;;;11.00;;
34737;SDS011;39910;47.154;27.614;2023-10-31T06:16:04;11.80;;;11.30;;
34737;SDS011;39910;47.154;27.614;2023-10-31T06:18:30;11.75;;;11.25;;
34737;SDS011;39910;47.154;27.614;2023-10-31T06:20:55;12.18;;;11.68;;
34737;SDS011;39910;47.154;27.614;2023-10-31T06:23:21;12.00;;;11.50;;
34737;SDS011;39910;47.154;27.614;2023-10-31T06:25:46;11.80;;;11.30;;
34737;SDS011;39910;47.154;27.614;2023-10-31T06:28:11;12.00;;;11.50;;
34737;SDS011;39910;47.154;27.614;2023-10-31T06:30:36;11.90;;;11.40;;
34737;SDS011;39910;47.154;27.614;2023-10-31T06:33:02;11.70;;;11.20;;
34737;SDS011;39910;47.154;27.614;2023-10-31T06:35:27;11.82;;;11.32;;
34737;SDS011;39910;47.154;27.614;2023-10-31T06:37:54;11.70;;;11.20;;
34737;SDS011;39910;47.154;27.614;2023-10-31T06:40:19;11.80;;;11.30;;
34737;SDS011;39910;47.154;27.614;2023-10-31T06:42:45;11.77;;;11.27;;
34737;SDS011;39910;47.154;27.614;2023-10-31T06:45:10;12.00;;;11.50;;
34737;SDS011;39910;47.154;27.614;2023-10-31T06:47:35;11.93;;;11.43;;
34737;SDS011;39910;47.154;27.614;2023-10-31T06:50:01;11.80;;;11.30;;
34737;SDS011;39910;47.154;27.614;2023-10-31T06:52:26;11.80;;;11.30;;
34737;SDS011;39910;47.154;27.614;2023-10-31T06:54:52;11.88;;;11.38;;
34737;SDS011;39910;47.154;27.614;2023-10-31T06:57:17;11.75;;;11.25;;
34737;SDS011;39910;47.154;27.614;2023-10-31T06:59:42;11.82;;;11.32;;
34737;SDS011;39910;47.154;27.614;2023-10-31T07:02:07;12.00;;;11.50;;
34737;SDS011;39910;47.154;27.614;2023-10-31T07:04:34;11.57;;;11.07;;
34737;SDS011;39910;47.154;27.614;2023-10-31T07:06:59;11.90;;;11.40;;
34737;SDS011;39910;47.154;27.614;2023-10-31T07:09:24;11.63;;;11.13;;
34737;SDS011;39910;47.154;27.614;2023-10-31T07:11:50;11.77;;;11.27;;
34737;SDS011;39910;47.154;27.614;2023-10-31T07:14:16;11.85;;;11.35;;
34737;SDS011;39910;47.154;27.614;2023-10-31T07:16:41;11.93;;;11.43;;
34737;SDS011;39910;47.154;27.614;2023-10-31T07:19:09;11.77;;;11.27;;
34737;SDS011;39910;47.154;27.614;2023-10-31T07:21:34;11.88;;;11.38;;
34737;SDS011;39910;47.154;27.614;2023-10-31T07:23:59;11.55;;;11.05;;
34737;SDS011;39910;47.154;27.614;2023-10-31T07:26:25;11.60;;;11.10;;
34737;SDS011;39910;47.154;27.614;2023-10-31T07:28:52;11.60;;;11.10;;
34737;SDS011;39910;47.154;27.614;2023-10-31T07:31:17;11.38;;;10.88;;
34737;SDS011;39910;47.154;27.614;2023-10-31T07:33:43;11.68;;;11.18;;
34737;SDS011;39910;47.154;27.614;2023-10-31T07:36:09;11.90;;;11.40;;
34737;SDS011;39910;47.154;27.614;2023-10-31T07:38:35;11.70;;;11.20;;
34737;SDS011;39910;47.154;27.614;2023-10-31T07:41:00;11.65;;;11.15;;
34737;SDS011;39910;47.154;27.614;2023-10-31T07:43:26;11.80;;;11.30;;
34737;SDS011;39910;47.154;27.614;2023-10-31T07:45:51;11.63;;;11.02;;
34737;SDS011;39910;47.154;27.614;2023-10-31T07:48:17;11.80;;;11.30;;
34737;SDS011;39910;47.154;27.614;2023-10-31T07:50:42;11.80;;;11.30;;
34737;SDS011;39910;47.154;27.614;2023-10-31T07:53:07;11.70;;;11.20;;
34737;SDS011;39910;47.154;27.614;2023-10-31T07:55:32;11.85;;;11.35;;
34737;SDS011;39910;47.154;27.614;2023-10-31T07:57:58;11.80;;;11.30;;
34737;SDS011;39910;47.154;27.614;2023-10-31T08:00:23;11.77;;;11.27;;
34737;SDS011;39910;47.154;27.614;2023-10-31T08:02:48;11.98;;;11.48;;
34737;SDS011;39910;47.154;27.614;2023-10-31T08:05:14;11.82;;;11.32;;
34737;SDS011;39910;47.154;27.614;2023-10-31T08:07:39;11.73;;;11.23;;
34737;SDS011;39910;47.154;27.614;2023-10-31T08:10:04;11.95;;;11.45;;
34737;SDS011;39910;47.154;27.614;2023-10-31T08:12:30;12.07;;;11.57;;
34737;SDS011;39910;47.154;27.614;2023-10-31T08:14:55;11.95;;;11.45;;
34737;SDS011;39910;47.154;27.614;2023-10-31T08:17:22;12.13;;;11.63;;
34737;SDS011;39910;47.154;27.614;2023-10-31T08:19:47;12.00;;;11.50;;
34737;SDS011;39910;47.154;27.614;2023-10-31T08:22:13;11.98;;;11.48;;
34737;SDS011;39910;47.154;27.614;2023-10-31T08:24:38;12.00;;;11.50;;
34737;SDS011;39910;47.154;27.614;2023-10-31T08:27:04;12.10;;;11.60;;
34737;SDS011;39910;47.154;27.614;2023-10-31T08:29:29;12.20;;;11.70;;
34737;SDS011;39910;47.154;27.614;2023-10-31T08:31:54;11.88;;;11.38;;
34737;SDS011;39910;47.154;27.614;2023-10-31T08:34:20;11.95;;;11.45;;
34737;SDS011;39910;47.154;27.614;2023-10-31T08:36:45;12.00;;;11.50;;
34737;SDS011;39910;47.154;27.614;2023-10-31T08:39:10;12.00;;;11.50;;
34737;SDS011;39910;47.154;27.614;2023-10-31T08:41:36;11.85;;;11.35;;
34737;SDS011;39910;47.154;27.614;2023-10-31T08:44:04;11.57;;;11.07;;
34737;SDS011;39910;47.154;27.614;2023-10-31T08:46:29;11.80;;;11.30;;
34737;SDS011;39910;47.154;27.614;2023-10-31T08:48:54;11.80;;;11.30;;
34737;SDS011;39910;47.154;27.614;2023-10-31T08:51:20;11.98;;;11.48;;
34737;SDS011;39910;47.154;27.614;2023-10-31T08:53:45;11.57;;;11.07;;
34737;SDS011;39910;47.154;27.614;2023-10-31T08:56:10;11.48;;;10.98;;
34737;SDS011;39910;47.154;27.614;2023-10-31T08:58:36;11.68;;;11.18;;
34737;SDS011;39910;47.154;27.614;2023-10-31T09:01:01;11.48;;;10.98;;
34737;SDS011;39910;47.154;27.614;2023-10-31T09:03:26;11.70;;;11.20;;
34737;SDS011;39910;47.154;27.614;2023-10-31T09:05:52;11.90;;;11.40;;
34737;SDS011;39910;47.154;27.614;2023-10-31T09:08:17;11.60;;;11.10;;
34737;SDS011;39910;47.154;27.614;2023-10-31T09:10:43;11.68;;;11.18;;
34737;SDS011;39910;47.154;27.614;2023-10-31T09:13:11;11.50;;;11.00;;
34737;SDS011;39910;47.154;27.614;2023-10-31T09:15:36;11.45;;;10.95;;
34737;SDS011;39910;47.154;27.614;2023-10-31T09:18:01;11.05;;;10.55;;
34737;SDS011;39910;47.154;27.614;2023-10-31T09:20:27;11.45;;;10.95;;
34737;SDS011;39910;47.154;27.614;2023-10-31T09:22:53;11.23;;;10.73;;
34737;SDS011;39910;47.154;27.614;2023-10-31T09:25:18;11.98;;;11.48;;
34737;SDS011;39910;47.154;27.614;2023-10-31T09:27:43;11.50;;;11.00;;
34737;SDS011;39910;47.154;27.614;2023-10-31T09:30:09;11.50;;;11.00;;
34737;SDS011;39910;47.154;27.614;2023-10-31T09:32:34;11.75;;;11.25;;
34737;SDS011;39910;47.154;27.614;2023-10-31T09:34:59;11.50;;;11.00;;
34737;SDS011;39910;47.154;27.614;2023-10-31T09:37:25;11.70;;;11.20;;
34737;SDS011;39910;47.154;27.614;2023-10-31T09:39:50;11.50;;;11.00;;
34737;SDS011;39910;47.154;27.614;2023-10-31T09:42:16;11.73;;;11.23;;
34737;SDS011;39910;47.154;27.614;2023-10-31T09:44:41;11.70;;;11.20;;
34737;SDS011;39910;47.154;27.614;2023-10-31T09:47:06;11.52;;;11.02;;
34737;SDS011;39910;47.154;27.614;2023-10-31T09:49:32;11.50;;;11.00;;
34737;SDS011;39910;47.154;27.614;2023-10-31T09:51:57;11.70;;;11.20;;
34737;SDS011;39910;47.154;27.614;2023-10-31T09:54:24;11.50;;;11.00;;
34737;SDS011;39910;47.154;27.614;2023-10-31T09:56:50;11.27;;;10.77;;
34737;SDS011;39910;47.154;27.614;2023-10-31T09:59:16;11.90;;;11.40;;
34737;SDS011;39910;47.154;27.614;2023-10-31T10:01:41;11.63;;;11.13;;
34737;SDS011;39910;47.154;27.614;2023-10-31T10:04:07;11.27;;;10.77;;
34737;SDS011;39910;47.154;27.614;2023-10-31T10:06:32;11.25;;;10.75;;
34737;SDS011;39910;47.154;27.614;2023-10-31T10:08:57;11.40;;;10.90;;
34737;SDS011;39910;47.154;27.614;2023-10-31T10:11:23;11.52;;;11.02;;
34737;SDS011;39910;47.154;27.614;2023-10-31T10:13:51;11.32;;;10.82;;
34737;SDS011;39910;47.154;27.614;2023-10-31T10:16:31;11.60;;;11.10;;
34737;SDS011;39910;47.154;27.614;2023-10-31T10:18:56;11.45;;;10.95;;
34737;SDS011;39910;47.154;27.614;2023-10-31T10:21:22;11.57;;;11.07;;
34737;SDS011;39910;47.154;27.614;2023-10-31T10:23:47;11.80;;;11.30;;
34737;SDS011;39910;47.154;27.614;2023-10-31T10:26:15;11.30;;;10.80;;
34737;SDS011;39910;47.154;27.614;2023-10-31T10:28:40;11.40;;;10.90;;
34737;SDS011;39910;47.154;27.614;2023-10-31T10:31:07;11.80;;;11.30;;
34737;SDS011;39910;47.154;27.614;2023-10-31T10:33:33;11.80;;;11.30;;
34737;SDS011;39910;47.154;27.614;2023-10-31T10:35:59;12.00;;;11.50;;
34737;SDS011;39910;47.154;27.614;2023-10-31T10:38:24;11.13;;;10.63;;
34737;SDS011;39910;47.154;27.614;2023-10-31T10:40:50;11.13;;;10.63;;
34737;SDS011;39910;47.154;27.614;2023-10-31T10:43:22;11.63;;;11.13;;
34737;SDS011;39910;47.154;27.614;2023-10-31T10:45:51;11.68;;;11.18;;
34737;SDS011;39910;47.154;27.614;2023-10-31T10:48:18;11.68;;;11.18;;
34737;SDS011;39910;47.154;27.614;2023-10-31T10:50:45;11.70;;;11.20;;
34737;SDS011;39910;47.154;27.614;2023-10-31T10:53:16;11.35;;;10.85;;
34737;SDS011;39910;47.154;27.614;2023-10-31T10:55:46;11.38;;;10.88;;
34737;SDS011;39910;47.154;27.614;2023-10-31T11:00:46;11.55;;;11.05;;
34737;SDS011;39910;47.154;27.614;2023-10-31T11:03:11;11.70;;;11.20;;
34737;SDS011;39910;47.154;27.614;2023-10-31T11:05:37;11.07;;;10.57;;
34737;SDS011;39910;47.154;27.614;2023-10-31T11:08:03;11.95;;;11.45;;
34737;SDS011;39910;47.154;27.614;2023-10-31T11:10:29;11.63;;;11.13;;
34737;SDS011;39910;47.154;27.614;2023-10-31T11:12:55;11.63;;;11.13;;
34737;SDS011;39910;47.154;27.614;2023-10-31T11:15:21;11.98;;;11.48;;
34737;SDS011;39910;47.154;27.614;2023-10-31T11:17:47;11.65;;;11.15;;
34737;SDS011;39910;47.154;27.614;2023-10-31T11:20:14;11.80;;;11.30;;
34737;SDS011;39910;47.154;27.614;2023-10-31T11:22:46;11.80;;;11.30;;
34737;SDS011;39910;47.154;27.614;2023-10-31T11:25:18;11.57;;;11.07;;
34737;SDS011;39910;47.154;27.614;2023-10-31T11:27:45;11.52;;;11.02;;
34737;SDS011;39910;47.154;27.614;2023-10-31T11:30:29;11.77;;;11.27;;
34737;SDS011;39910;47.154;27.614;2023-10-31T11:32:58;11.80;;;11.30;;
34737;SDS011;39910;47.154;27.614;2023-10-31T11:35:29;11.80;;;11.30;;
34737;SDS011;39910;47.154;27.614;2023-10-31T11:38:04;11.70;;;11.20;;
34737;SDS011;39910;47.154;27.614;2023-10-31T11:40:33;11.65;;;11.15;;
34737;SDS011;39910;47.154;27.614;2023-10-31T11:43:00;11.50;;;11.00;;
34737;SDS011;39910;47.154;27.614;2023-10-31T11:47:55;11.73;;;11.23;;
34737;SDS011;39910;47.154;27.614;2023-10-31T11:50:20;11.60;;;11.10;;
34737;SDS011;39910;47.154;27.614;2023-10-31T11:52:57;11.65;;;11.15;;
34737;SDS011;39910;47.154;27.614;2023-10-31T11:55:23;11.60;;;11.10;;
34737;SDS011;39910;47.154;27.614;2023-10-31T11:57:49;11.35;;;10.85;;
34737;SDS011;39910;47.154;27.614;2023-10-31T12:00:23;11.45;;;10.95;;
34737;SDS011;39910;47.154;27.614;2023-10-31T12:03:01;11.50;;;11.00;;
34737;SDS011;39910;47.154;27.614;2023-10-31T12:05:26;11.50;;;11.00;;
34737;SDS011;39910;47.154;27.614;2023-10-31T12:07:53;11.90;;;11.40;;
34737;SDS011;39910;47.154;27.614;2023-10-31T12:10:25;11.13;;;10.63;;
34737;SDS011;39910;47.154;27.614;2023-10-31T12:12:51;11.60;;;11.10;;
34737;SDS011;39910;47.154;27.614;2023-10-31T12:15:17;12.15;;;11.65;;
34737;SDS011;39910;47.154;27.614;2023-10-31T12:17:43;11.65;;;11.15;;
34737;SDS011;39910;47.154;27.614;2023-10-31T12:20:09;11.25;;;10.75;;
34737;SDS011;39910;47.154;27.614;2023-10-31T12:22:35;12.15;;;11.65;;
34737;SDS011;39910;47.154;27.614;2023-10-31T12:25:03;11.60;;;11.10;;
34737;SDS011;39910;47.154;27.614;2023-10-31T12:27:42;11.80;;;11.30;;
34737;SDS011;39910;47.154;27.614;2023-10-31T12:30:08;11.50;;;11.00;;
34737;SDS011;39910;47.154;27.614;2023-10-31T12:32:34;11.75;;;11.25;;
34737;SDS011;39910;47.154;27.614;2023-10-31T12:34:59;11.80;;;11.30;;
34737;SDS011;39910;47.154;27.614;2023-10-31T12:37:24;11.52;;;11.02;;
34737;SDS011;39910;47.154;27.614;2023-10-31T12:39:50;11.68;;;11.18;;
34737;SDS011;39910;47.154;27.614;2023-10-31T12:42:16;11.40;;;10.90;;
34737;SDS011;39910;47.154;27.614;2023-10-31T12:44:42;11.55;;;11.05;;
34737;SDS011;39910;47.154;27.614;2023-10-31T12:47:07;11.50;;;11.00;;
34737;SDS011;39910;47.154;27.614;2023-10-31T12:49:33;11.50;;;11.00;;
34737;SDS011;39910;47.154;27.614;2023-10-31T12:51:58;12.35;;;11.77;;
34737;SDS011;39910;47.154;27.614;2023-10-31T12:54:31;11.85;;;11.35;;
34737;SDS011;39910;47.154;27.614;2023-10-31T12:57:03;11.95;;;11.45;;
34737;SDS011;39910;47.154;27.614;2023-10-31T12:59:29;11.45;;;10.95;;
34737;SDS011;39910;47.154;27.614;2023-10-31T13:01:55;11.43;;;10.93;;
34737;SDS011;39910;47.154;27.614;2023-10-31T13:04:26;11.52;;;11.02;;
34737;SDS011;39910;47.154;27.614;2023-10-31T13:07:07;11.35;;;10.85;;
34737;SDS011;39910;47.154;27.614;2023-10-31T13:09:33;11.70;;;11.20;;
34737;SDS011;39910;47.154;27.614;2023-10-31T13:12:00;11.63;;;11.13;;
34737;SDS011;39910;47.154;27.614;2023-10-31T13:14:26;11.80;;;11.30;;
34737;SDS011;39910;47.154;27.614;2023-10-31T13:16:51;12.10;;;11.60;;
34737;SDS011;39910;47.154;27.614;2023-10-31T13:19:17;11.60;;;11.10;;
34737;SDS011;39910;47.154;27.614;2023-10-31T13:21:42;11.68;;;11.18;;
34737;SDS011;39910;47.154;27.614;2023-10-31T13:24:07;11.45;;;10.95;;
34737;SDS011;39910;47.154;27.614;2023-10-31T13:26:33;11.70;;;11.20;;
34737;SDS011;39910;47.154;27.614;2023-10-31T13:28:58;12.07;;;11.57;;
34737;SDS011;39910;47.154;27.614;2023-10-31T13:31:24;11.45;;;10.95;;
34737;SDS011;39910;47.154;27.614;2023-10-31T13:33:49;11.80;;;11.30;;
34737;SDS011;39910;47.154;27.614;2023-10-31T13:36:14;11.80;;;11.30;;
34737;SDS011;39910;47.154;27.614;2023-10-31T13:38:40;11.90;;;11.40;;
34737;SDS011;39910;47.154;27.614;2023-10-31T13:41:05;11.68;;;11.18;;
34737;SDS011;39910;47.154;27.614;2023-10-31T13:43:31;11.82;;;11.32;;
34737;SDS011;39910;47.154;27.614;2023-10-31T13:45:56;11.70;;;11.20;;
34737;SDS011;39910;47.154;27.614;2023-10-31T13:48:21;11.35;;;10.85;;
34737;SDS011;39910;47.154;27.614;2023-10-31T13:50:47;11.40;;;10.90;;
34737;SDS011;39910;47.154;27.614;2023-10-31T13:53:12;11.70;;;11.20;;
34737;SDS011;39910;47.154;27.614;2023-10-31T13:55:38;12.00;;;11.50;;
34737;SDS011;39910;47.154;27.614;2023-10-31T13:58:03;11.60;;;11.10;;
34737;SDS011;39910;47.154;27.614;2023-10-31T14:00:28;11.95;;;11.45;;
34737;SDS011;39910;47.154;27.614;2023-10-31T14:02:54;12.07;;;11.57;;
34737;SDS011;39910;47.154;27.614;2023-10-31T14:05:20;12.05;;;11.55;;
34737;SDS011;39910;47.154;27.614;2023-10-31T14:07:46;11.73;;;11.23;;